createdAt,value
2023-01-20T00:01:27.909Z,2.10
2023-01-20T00:03:58.332Z,2.20
2023-01-20T00:06:29.195Z,2.20
2023-01-20T00:08:59.227Z,2.10
2023-01-20T00:11:28.624Z,2.00
2023-01-20T00:13:57.669Z,1.90
2023-01-20T00:16:27.107Z,1.70
2023-01-20T00:18:55.974Z,1.70
2023-01-20T00:21:25.561Z,1.60
2023-01-20T00:23:53.823Z,1.50
2023-01-20T00:26:23.868Z,1.70
2023-01-20T00:28:55.375Z,1.70
2023-01-20T00:31:25.380Z,1.60
2023-01-20T00:33:55.908Z,1.60
2023-01-20T00:36:26.803Z,1.60
2023-01-20T00:38:54.943Z,1.70
2023-01-20T00:41:23.154Z,1.60
2023-01-20T00:43:51.603Z,1.90
2023-01-20T00:46:19.830Z,1.70
2023-01-20T00:48:47.984Z,1.60
2023-01-20T00:51:16.828Z,1.50
2023-01-20T00:53:46.348Z,1.70
2023-01-20T00:56:14.627Z,1.50
2023-01-20T00:58:44.243Z,1.60
2023-01-20T01:01:13.085Z,1.60
2023-01-20T01:03:41.372Z,1.60
2023-01-20T01:06:11.879Z,1.50
2023-01-20T01:08:40.742Z,1.90
2023-01-20T01:11:11.064Z,2.20
2023-01-20T01:13:39.935Z,2.20
2023-01-20T01:16:12.973Z,2.40
2023-01-20T01:18:41.838Z,2.50
2023-01-20T01:21:11.730Z,2.50
2023-01-20T01:23:39.912Z,2.60
2023-01-20T01:26:08.308Z,2.60
2023-01-20T01:28:38.066Z,2.60
2023-01-20T01:31:08.227Z,2.60
2023-01-20T01:33:36.800Z,2.70
2023-01-20T01:36:06.310Z,2.80
2023-01-20T01:38:34.542Z,2.70
2023-01-20T01:41:03.027Z,2.70
2023-01-20T01:43:33.100Z,2.80
2023-01-20T01:46:03.282Z,2.80
2023-01-20T01:48:37.515Z,2.80
2023-01-20T01:51:10.129Z,2.70
2023-01-20T01:53:42.921Z,2.70
2023-01-20T01:56:12.224Z,2.60
2023-01-20T01:58:45.331Z,2.80
2023-01-20T02:01:15.346Z,2.90
2023-01-20T02:03:50.573Z,2.90
2023-01-20T02:06:20.125Z,3.10
2023-01-20T02:08:49.276Z,3.10
2023-01-20T02:11:17.454Z,2.90
2023-01-20T02:13:46.108Z,2.90
2023-01-20T02:16:27.422Z,2.90
2023-01-20T02:19:06.974Z,2.80
2023-01-20T02:21:55.402Z,2.80
2023-01-20T02:25:01.357Z,3.10
2023-01-20T02:27:51.133Z,2.80
2023-01-20T02:30:48.442Z,2.40
2023-01-20T02:33:25.928Z,2.60
2023-01-20T02:35:59.729Z,2.80
2023-01-20T02:38:48.896Z,2.70
2023-01-20T02:41:22.867Z,2.80
2023-01-20T02:43:58.824Z,2.90
2023-01-20T02:46:33.287Z,3.00
2023-01-20T02:49:12.005Z,2.90
2023-01-20T02:51:45.385Z,2.80
2023-01-20T02:54:16.302Z,3.40
2023-01-20T02:56:44.604Z,3.20
2023-01-20T02:59:15.008Z,3.20
2023-01-20T03:01:47.670Z,3.10
2023-01-20T03:04:22.504Z,3.10
2023-01-20T03:06:55.395Z,3.00
2023-01-20T03:09:28.990Z,3.00
2023-01-20T03:12:01.940Z,2.90
2023-01-20T03:14:30.265Z,3.00
2023-01-20T03:16:58.488Z,2.90
2023-01-20T03:19:28.132Z,2.90
2023-01-20T03:21:56.355Z,2.90
2023-01-20T03:24:27.366Z,2.90
2023-01-20T03:26:55.798Z,2.90
2023-01-20T03:29:23.988Z,2.90
2023-01-20T03:31:56.052Z,2.90
2023-01-20T03:34:26.348Z,2.90
2023-01-20T03:36:56.976Z,2.90
2023-01-20T03:39:26.893Z,2.80
2023-01-20T03:42:07.200Z,2.90
2023-01-20T03:44:47.958Z,3.00
2023-01-20T03:47:24.362Z,3.00
2023-01-20T03:49:59.904Z,3.00
2023-01-20T03:52:47.509Z,3.10
2023-01-20T03:55:21.387Z,3.30
2023-01-20T03:58:04.780Z,3.40
2023-01-20T04:00:35.997Z,3.40
2023-01-20T04:03:09.163Z,3.40
2023-01-20T04:05:38.554Z,3.40
2023-01-20T04:08:11.208Z,3.30
2023-01-20T04:10:43.267Z,3.20
2023-01-20T04:13:11.707Z,3.20
2023-01-20T04:15:44.492Z,3.10
2023-01-20T04:18:18.130Z,3.20
2023-01-20T04:20:48.860Z,3.00
2023-01-20T04:23:24.968Z,3.00
2023-01-20T04:25:53.215Z,3.00
2023-01-20T04:28:21.335Z,3.00
2023-01-20T04:30:50.823Z,3.00
2023-01-20T04:33:19.110Z,3.00
2023-01-20T04:35:47.393Z,3.10
2023-01-20T04:38:15.511Z,3.10
2023-01-20T04:40:45.080Z,3.20
2023-01-20T04:43:13.778Z,3.10
2023-01-20T04:45:42.651Z,3.30
2023-01-20T04:48:11.661Z,3.30
2023-01-20T04:50:40.640Z,3.30
2023-01-20T04:53:10.256Z,3.30
2023-01-20T04:55:38.486Z,3.20
2023-01-20T04:58:07.983Z,3.20
2023-01-20T05:00:36.170Z,3.10
2023-01-20T05:03:06.261Z,3.20
2023-01-20T05:05:34.707Z,3.20
2023-01-20T05:08:04.765Z,3.30
2023-01-20T05:10:33.689Z,3.30
2023-01-20T05:13:02.223Z,3.20
2023-01-20T05:15:31.942Z,3.20
2023-01-20T05:18:00.185Z,3.20
2023-01-20T05:20:28.396Z,3.20
2023-01-20T05:22:56.527Z,3.10
2023-01-20T05:25:24.796Z,3.20
2023-01-20T05:27:52.972Z,3.10
2023-01-20T05:30:21.417Z,3.20
2023-01-20T05:32:52.059Z,3.20
2023-01-20T05:35:20.487Z,3.20
2023-01-20T05:37:48.681Z,3.20
2023-01-20T05:40:17.317Z,3.30
2023-01-20T05:42:45.451Z,3.20
2023-01-20T05:45:14.042Z,3.30
2023-01-20T05:47:42.361Z,3.40
2023-01-20T05:50:13.047Z,3.30
2023-01-20T05:52:41.471Z,3.40
2023-01-20T05:55:10.628Z,3.40
2023-01-20T05:57:38.798Z,3.40
2023-01-20T06:00:08.886Z,3.50
2023-01-20T06:02:37.296Z,3.40
2023-01-20T06:05:06.167Z,3.60
2023-01-20T06:07:35.753Z,3.50
2023-01-20T06:10:04.164Z,3.60
2023-01-20T06:12:32.435Z,3.60
2023-01-20T06:15:00.587Z,3.70
2023-01-20T06:17:28.915Z,3.80
2023-01-20T06:19:57.283Z,3.80
2023-01-20T06:22:26.152Z,3.80
2023-01-20T06:24:55.734Z,3.80
2023-01-20T06:27:23.942Z,4.00
2023-01-20T06:29:52.092Z,4.00
2023-01-20T06:32:20.552Z,4.10
2023-01-20T06:34:48.832Z,4.30
2023-01-20T06:37:17.255Z,4.20
2023-01-20T06:39:45.429Z,4.40
2023-01-20T06:42:15.134Z,4.50
2023-01-20T06:44:43.284Z,4.40
2023-01-20T06:47:11.730Z,4.40
2023-01-20T06:49:39.865Z,4.10
2023-01-20T06:52:08.558Z,4.30
2023-01-20T06:54:36.728Z,4.20
2023-01-20T06:57:05.151Z,4.10
2023-01-20T06:59:34.706Z,4.30
2023-01-20T07:02:03.209Z,4.30
2023-01-20T07:04:31.423Z,4.20
2023-01-20T07:06:59.714Z,4.20
2023-01-20T07:09:27.984Z,4.20
2023-01-20T07:11:56.255Z,4.30
2023-01-20T07:14:24.388Z,4.50
2023-01-20T07:16:54.056Z,4.30
2023-01-20T07:19:22.192Z,4.40
2023-01-20T07:21:50.503Z,4.50
2023-01-20T07:24:19.010Z,4.40
2023-01-20T07:26:47.175Z,4.40
2023-01-20T07:29:17.758Z,4.50
2023-01-20T07:31:46.961Z,4.50
2023-01-20T07:34:16.495Z,4.40
2023-01-20T07:36:44.825Z,4.40
2023-01-20T07:39:14.429Z,4.60
2023-01-20T07:41:43.849Z,4.70
2023-01-20T07:44:11.934Z,4.50
2023-01-20T07:46:40.133Z,4.50
2023-01-20T07:49:10.128Z,4.40
2023-01-20T07:51:43.354Z,4.50
2023-01-20T07:54:12.810Z,4.50
2023-01-20T07:56:41.045Z,4.30
2023-01-20T07:59:11.344Z,4.30
2023-01-20T08:01:39.549Z,4.50
2023-01-20T08:04:07.785Z,4.60
2023-01-20T08:06:35.962Z,4.70
2023-01-20T08:09:05.730Z,4.80
2023-01-20T08:11:33.862Z,4.70
2023-01-20T08:14:02.104Z,4.70
2023-01-20T08:16:30.233Z,4.60
2023-01-20T08:18:58.703Z,4.70
2023-01-20T08:21:28.396Z,4.60
2023-01-20T08:23:57.535Z,4.50
2023-01-20T08:26:29.670Z,4.50
2023-01-20T08:29:02.739Z,4.70
2023-01-20T08:31:31.290Z,4.60
2023-01-20T08:34:00.263Z,4.70
2023-01-20T08:36:30.541Z,4.70
2023-01-20T08:39:00.758Z,4.60
2023-01-20T08:41:32.146Z,4.60
2023-01-20T08:44:01.353Z,4.40
2023-01-20T08:46:29.899Z,4.50
2023-01-20T08:48:58.330Z,4.60
2023-01-20T08:51:28.966Z,4.60
2023-01-20T08:53:57.283Z,4.60
2023-01-20T08:56:25.604Z,4.50
2023-01-20T08:58:55.284Z,4.30
2023-01-20T09:01:25.863Z,4.40
2023-01-20T09:04:05.307Z,4.60
2023-01-20T09:06:40.052Z,4.70
2023-01-20T09:09:08.335Z,4.70
2023-01-20T09:11:36.609Z,4.80
2023-01-20T09:14:06.244Z,5.00
2023-01-20T09:16:34.445Z,4.70
2023-01-20T09:19:03.205Z,4.70
2023-01-20T09:21:31.495Z,4.40
2023-01-20T09:23:59.799Z,4.60
2023-01-20T09:26:35.775Z,4.50
2023-01-20T09:29:10.313Z,4.10
2023-01-20T09:31:39.470Z,4.30
2023-01-20T09:34:08.123Z,4.40
2023-01-20T09:36:36.351Z,4.30
2023-01-20T09:39:22.135Z,4.20
2023-01-20T09:42:08.568Z,4.30
2023-01-20T09:44:48.035Z,4.30
2023-01-20T09:47:31.350Z,4.40
2023-01-20T09:50:55.597Z,4.30
2023-01-20T09:53:36.258Z,4.20
2023-01-20T09:56:10.632Z,4.20
2023-01-20T09:58:45.871Z,4.10
2023-01-20T10:01:21.285Z,4.10
2023-01-20T10:03:53.923Z,4.20
2023-01-20T10:06:26.827Z,4.20
2023-01-20T10:09:06.025Z,4.30
2023-01-20T10:11:39.365Z,4.20
2023-01-20T10:14:15.056Z,4.00
2023-01-20T10:16:51.534Z,4.10
2023-01-20T10:19:28.178Z,3.90
2023-01-20T10:22:05.802Z,3.90
2023-01-20T10:24:38.196Z,3.80
2023-01-20T10:27:06.589Z,3.70
2023-01-20T10:29:37.653Z,3.70
2023-01-20T10:32:14.513Z,3.80
2023-01-20T10:34:47.622Z,3.50
2023-01-20T10:37:16.527Z,3.60
2023-01-20T10:39:49.901Z,3.80
2023-01-20T10:42:20.320Z,3.50
2023-01-20T10:44:50.925Z,3.30
2023-01-20T10:47:44.942Z,3.30
2023-01-20T10:50:41.867Z,3.20
2023-01-20T10:53:25.220Z,3.40
2023-01-20T10:56:03.398Z,3.40
2023-01-20T10:58:33.503Z,3.50
2023-01-20T11:01:04.500Z,3.20
2023-01-20T11:03:38.235Z,3.10
2023-01-20T11:06:08.491Z,3.10
2023-01-20T11:08:36.722Z,3.10
2023-01-20T11:11:12.580Z,2.70
2023-01-20T11:13:40.795Z,2.90
2023-01-20T11:16:17.332Z,2.90
2023-01-20T11:18:59.975Z,3.30
2023-01-20T11:21:31.064Z,3.00
2023-01-20T11:24:00.871Z,3.20
2023-01-20T11:26:32.362Z,3.00
2023-01-20T11:29:02.955Z,2.60
2023-01-20T11:31:42.379Z,3.00
2023-01-20T11:34:23.290Z,3.40
2023-01-20T11:36:52.699Z,3.50
2023-01-20T11:39:29.562Z,3.70
2023-01-20T11:42:17.306Z,3.50
2023-01-20T11:44:46.189Z,3.50
2023-01-20T11:47:23.972Z,3.60
2023-01-20T11:50:25.667Z,3.30
2023-01-20T11:52:54.152Z,3.40
2023-01-20T11:55:24.462Z,3.10
2023-01-20T11:57:55.390Z,3.10
2023-01-20T12:00:43.183Z,3.10
2023-01-20T12:03:56.836Z,3.30
2023-01-20T12:06:28.891Z,3.40
2023-01-20T12:09:02.947Z,3.70
2023-01-20T12:11:35.010Z,3.50
2023-01-20T12:14:28.637Z,3.50
2023-01-20T12:17:16.651Z,3.20
2023-01-20T12:20:06.745Z,3.20
2023-01-20T12:22:45.166Z,3.30
2023-01-20T12:25:19.999Z,3.50
2023-01-20T12:27:54.784Z,3.40
2023-01-20T12:30:56.044Z,3.20
2023-01-20T12:33:26.895Z,3.20
2023-01-20T12:36:29.995Z,3.30
2023-01-20T12:39:45.380Z,3.30
2023-01-20T12:42:46.006Z,3.10
2023-01-20T12:45:26.749Z,3.10
2023-01-20T12:48:05.449Z,3.20
2023-01-20T12:50:52.186Z,3.30
2023-01-20T12:53:41.837Z,3.10
2023-01-20T12:56:21.147Z,3.10
2023-01-20T12:58:58.553Z,3.00
2023-01-20T13:01:45.588Z,2.90
2023-01-20T13:04:49.419Z,2.90
2023-01-20T13:07:40.569Z,3.20
2023-01-20T13:10:23.015Z,3.00
2023-01-20T13:13:01.445Z,3.10
2023-01-20T13:15:31.240Z,2.90
2023-01-20T13:18:27.810Z,3.00
2023-01-20T13:20:56.343Z,3.00
2023-01-20T13:23:27.094Z,2.80
2023-01-20T13:25:56.719Z,2.90
2023-01-20T13:28:28.899Z,3.00
2023-01-20T13:30:58.344Z,3.10
2023-01-20T13:33:36.501Z,3.00
2023-01-20T13:36:17.629Z,2.90
2023-01-20T13:38:46.674Z,3.10
2023-01-20T13:41:51.215Z,3.10
2023-01-20T13:44:36.873Z,3.10
2023-01-20T13:47:05.738Z,3.00
2023-01-20T13:49:50.265Z,2.90
2023-01-20T13:53:13.192Z,2.80
2023-01-20T13:56:01.578Z,2.50
2023-01-20T13:58:31.504Z,2.50
2023-01-20T14:01:02.471Z,2.60
2023-01-20T14:03:32.711Z,2.70
2023-01-20T14:06:02.207Z,2.80
2023-01-20T14:08:33.168Z,2.70
2023-01-20T14:11:08.201Z,2.70
2023-01-20T14:13:36.520Z,2.40
2023-01-20T14:16:06.763Z,2.60
2023-01-20T14:18:35.066Z,2.40
2023-01-20T14:21:06.351Z,2.50
2023-01-20T14:23:37.622Z,2.30
2023-01-20T14:26:11.463Z,2.40
2023-01-20T14:28:48.728Z,2.50
2023-01-20T14:31:21.401Z,2.50
2023-01-20T14:33:55.047Z,2.30
2023-01-20T14:36:24.712Z,2.40
2023-01-20T14:38:58.275Z,2.20
2023-01-20T14:41:47.467Z,2.30
2023-01-20T14:44:20.110Z,2.40
2023-01-20T14:46:52.115Z,2.40
2023-01-20T14:49:22.639Z,2.60
2023-01-20T14:51:52.829Z,2.40
2023-01-20T14:54:39.172Z,2.50
2023-01-20T14:57:21.239Z,2.40
2023-01-20T15:00:02.239Z,2.40
2023-01-20T15:02:35.345Z,2.30
2023-01-20T15:05:13.674Z,2.30
2023-01-20T15:07:42.100Z,2.20
2023-01-20T15:10:16.620Z,2.20
2023-01-20T15:12:55.912Z,2.20
2023-01-20T15:15:30.373Z,2.30
2023-01-20T15:18:23.378Z,2.10
2023-01-20T15:21:03.799Z,2.20
2023-01-20T15:23:41.364Z,2.30
2023-01-20T15:26:10.919Z,2.30
2023-01-20T15:28:44.472Z,2.30
2023-01-20T15:31:14.311Z,2.40
2023-01-20T15:33:44.743Z,2.30
2023-01-20T15:36:24.875Z,2.40
2023-01-20T15:38:53.094Z,2.40
2023-01-20T15:41:21.843Z,2.40
2023-01-20T15:43:52.469Z,2.40
2023-01-20T15:46:21.058Z,2.20
2023-01-20T15:48:50.613Z,2.20
2023-01-20T15:51:21.093Z,2.20
2023-01-20T15:53:49.604Z,2.20
2023-01-20T15:56:21.632Z,2.40
2023-01-20T15:58:50.508Z,2.50
2023-01-20T16:01:21.070Z,2.30
2023-01-20T16:03:51.555Z,2.10
2023-01-20T16:06:21.377Z,2.20
2023-01-20T16:08:51.083Z,2.20
2023-01-20T16:11:20.564Z,2.30
2023-01-20T16:13:48.796Z,2.00
2023-01-20T16:16:19.933Z,2.00
2023-01-20T16:18:48.897Z,2.00
2023-01-20T16:21:20.541Z,2.00
2023-01-20T16:23:48.749Z,2.00
2023-01-20T16:26:22.681Z,1.90
2023-01-20T16:28:51.350Z,1.90
2023-01-20T16:31:20.349Z,2.00
2023-01-20T16:33:48.680Z,1.90
2023-01-20T16:36:20.541Z,1.80
2023-01-20T16:38:49.728Z,1.80
2023-01-20T16:41:21.400Z,1.80
2023-01-20T16:43:50.076Z,1.80
2023-01-20T16:46:20.620Z,1.80
2023-01-20T16:48:49.055Z,1.70
2023-01-20T16:51:19.903Z,1.90
2023-01-20T16:53:48.422Z,1.80
2023-01-20T16:56:17.633Z,1.80
2023-01-20T16:58:48.413Z,1.80
2023-01-20T17:01:21.190Z,1.80
2023-01-20T17:03:49.695Z,1.80
2023-01-20T17:06:20.761Z,1.80
2023-01-20T17:08:50.423Z,1.70
2023-01-20T17:11:19.227Z,1.60
2023-01-20T17:13:47.775Z,1.60
2023-01-20T17:16:16.494Z,1.60
2023-01-20T17:18:45.707Z,1.60
2023-01-20T17:21:15.074Z,1.60
2023-01-20T17:23:44.686Z,1.70
2023-01-20T17:26:12.842Z,1.60
2023-01-20T17:28:41.109Z,1.80
2023-01-20T17:31:09.451Z,1.60
2023-01-20T17:33:37.700Z,1.60
2023-01-20T17:36:07.515Z,1.70
2023-01-20T17:38:36.712Z,1.80
2023-01-20T17:41:07.605Z,1.80
2023-01-20T17:43:37.426Z,1.80
2023-01-20T17:46:14.830Z,1.60
2023-01-20T17:48:43.240Z,1.50
2023-01-20T17:51:12.893Z,1.60
2023-01-20T17:53:41.236Z,1.70
2023-01-20T17:56:13.579Z,1.70
2023-01-20T17:58:42.790Z,1.60
2023-01-20T18:01:12.363Z,1.70
2023-01-20T18:03:43.473Z,1.80
2023-01-20T18:06:13.464Z,1.70
2023-01-20T18:08:42.124Z,1.70
2023-01-20T18:11:15.092Z,1.80
2023-01-20T18:13:46.031Z,1.80
2023-01-20T18:16:16.194Z,1.80
2023-01-20T18:18:46.268Z,1.80
2023-01-20T18:21:16.476Z,1.70
2023-01-20T18:23:46.094Z,1.70
2023-01-20T18:26:17.908Z,1.80
2023-01-20T18:28:47.995Z,1.70
2023-01-20T18:31:18.253Z,1.80
2023-01-20T18:33:48.293Z,1.80
2023-01-20T18:36:18.461Z,1.80
2023-01-20T18:38:51.020Z,1.90
2023-01-20T18:41:21.147Z,1.90
2023-01-20T18:43:50.001Z,1.80
2023-01-20T18:46:19.505Z,1.70
2023-01-20T18:48:49.086Z,1.80
2023-01-20T18:51:20.378Z,1.90
2023-01-20T18:53:55.628Z,1.90
2023-01-20T18:56:26.431Z,1.80
2023-01-20T18:58:55.512Z,2.00
2023-01-20T19:01:25.756Z,1.90
2023-01-20T19:03:55.182Z,1.90
2023-01-20T19:06:25.695Z,1.90
2023-01-20T19:08:54.367Z,1.90
2023-01-20T19:11:25.648Z,1.90
2023-01-20T19:13:54.535Z,1.90
2023-01-20T19:16:24.995Z,1.90
2023-01-20T19:18:55.232Z,1.90
2023-01-20T19:21:24.513Z,1.90
2023-01-20T19:23:54.274Z,2.00
2023-01-20T19:26:25.011Z,2.00
2023-01-20T19:28:57.626Z,1.90
2023-01-20T19:31:26.221Z,2.00
2023-01-20T19:33:54.497Z,2.00
2023-01-20T19:36:23.619Z,2.00
2023-01-20T19:38:52.823Z,2.00
2023-01-20T19:41:22.979Z,2.10
2023-01-20T19:43:57.295Z,1.90
2023-01-20T19:46:27.479Z,2.10
2023-01-20T19:48:57.567Z,2.20
2023-01-20T19:51:26.569Z,2.10
2023-01-20T19:53:57.921Z,2.10
2023-01-20T19:56:27.836Z,2.10
2023-01-20T19:58:57.955Z,2.10
2023-01-20T20:01:29.797Z,2.10
2023-01-20T20:04:00.117Z,2.10
2023-01-20T20:06:30.760Z,2.00
2023-01-20T20:09:01.056Z,2.00
2023-01-20T20:11:29.969Z,2.00
2023-01-20T20:14:01.099Z,2.10
2023-01-20T20:16:31.520Z,2.00
2023-01-20T20:19:00.283Z,1.90
2023-01-20T20:21:29.204Z,1.90
2023-01-20T20:23:59.237Z,2.00
2023-01-20T20:26:29.506Z,1.90
2023-01-20T20:29:00.284Z,1.90
2023-01-20T20:31:29.531Z,1.90
2023-01-20T20:33:58.682Z,2.00
2023-01-20T20:36:28.537Z,2.00
2023-01-20T20:38:58.412Z,1.90
2023-01-20T20:41:29.237Z,1.80
2023-01-20T20:43:59.290Z,1.90
2023-01-20T20:46:27.675Z,1.90
2023-01-20T20:48:56.752Z,1.90
2023-01-20T20:51:24.958Z,1.90
2023-01-20T20:53:55.994Z,1.90
2023-01-20T20:56:25.067Z,2.00
2023-01-20T20:59:01.327Z,1.90
2023-01-20T21:01:34.079Z,1.80
2023-01-20T21:04:03.544Z,1.80
2023-01-20T21:06:32.245Z,1.90
2023-01-20T21:09:01.362Z,1.90
2023-01-20T21:11:30.116Z,1.80
2023-01-20T21:13:58.362Z,1.80
2023-01-20T21:16:28.134Z,1.80
2023-01-20T21:18:59.344Z,1.80
2023-01-20T21:21:29.003Z,1.80
2023-01-20T21:23:59.107Z,1.80
2023-01-20T21:26:30.415Z,1.90
2023-01-20T21:29:01.962Z,1.70
2023-01-20T21:31:31.857Z,1.70
2023-01-20T21:34:02.108Z,1.70
2023-01-20T21:36:31.397Z,1.90
2023-01-20T21:39:00.231Z,1.80
2023-01-20T21:41:28.587Z,1.80
2023-01-20T21:44:14.351Z,1.80
2023-01-20T21:46:42.780Z,1.80
2023-01-20T21:49:30.110Z,1.80
2023-01-20T21:52:15.667Z,1.80
2023-01-20T21:54:45.490Z,1.80
2023-01-20T21:57:14.062Z,1.80
2023-01-20T21:59:42.999Z,1.70
2023-01-20T22:02:13.458Z,1.80
2023-01-20T22:04:43.460Z,1.80
2023-01-20T22:07:11.733Z,1.80
2023-01-20T22:09:40.263Z,1.70
2023-01-20T22:12:08.763Z,1.80
2023-01-20T22:14:37.088Z,1.70
2023-01-20T22:17:05.488Z,1.80
2023-01-20T22:19:33.882Z,1.80
2023-01-20T22:22:03.489Z,1.80
2023-01-20T22:24:32.000Z,1.70
2023-01-20T22:27:00.449Z,1.70
2023-01-20T22:29:28.947Z,1.70
2023-01-20T22:31:59.539Z,1.70
2023-01-20T22:34:27.952Z,1.70
2023-01-20T22:36:57.740Z,1.70
2023-01-20T22:39:27.770Z,1.60
2023-01-20T22:41:55.966Z,1.70
2023-01-20T22:44:24.235Z,1.70
2023-01-20T22:46:52.931Z,1.70
2023-01-20T22:49:21.286Z,1.70
2023-01-20T22:51:49.490Z,1.60
2023-01-20T22:54:17.815Z,1.60
2023-01-20T22:56:47.490Z,1.70
2023-01-20T22:59:17.889Z,1.70
2023-01-20T23:01:46.139Z,1.70
2023-01-20T23:04:17.081Z,1.70
2023-01-20T23:06:45.338Z,1.70
2023-01-20T23:09:14.522Z,1.70
2023-01-20T23:11:42.804Z,1.70
2023-01-20T23:14:13.557Z,1.70
2023-01-20T23:16:42.314Z,1.70
2023-01-20T23:19:10.822Z,1.60
2023-01-20T23:21:39.069Z,1.60
2023-01-20T23:24:09.065Z,1.60
2023-01-20T23:26:37.332Z,1.50
2023-01-20T23:29:05.520Z,1.60
2023-01-20T23:31:35.482Z,1.50
2023-01-20T23:34:03.842Z,1.50
2023-01-20T23:36:32.191Z,1.50
2023-01-20T23:39:00.449Z,1.60
2023-01-20T23:41:28.684Z,1.50
2023-01-20T23:43:56.866Z,1.50
2023-01-20T23:46:25.117Z,1.70
2023-01-20T23:48:54.657Z,1.70
2023-01-20T23:51:23.384Z,1.60
2023-01-20T23:53:51.634Z,1.60
2023-01-20T23:56:22.355Z,1.60
2023-01-20T23:58:51.373Z,1.50
